sensor_id;sensor_type;location;lat;lon;timestamp;P1;durP1;ratioP1;P2;durP2;ratioP2
48795;SDS011;34607;48.520;-1.330;2023-02-03T00:00:39;5.68;;;3.05;;
48795;SDS011;34607;48.520;-1.330;2023-02-03T00:03:06;8.75;;;3.67;;
48795;SDS011;34607;48.520;-1.330;2023-02-03T00:05:34;7.95;;;2.78;;
48795;SDS011;34607;48.520;-1.330;2023-02-03T00:08:02;3.80;;;2.80;;
48795;SDS011;34607;48.520;-1.330;2023-02-03T00:10:31;6.38;;;3.33;;
48795;SDS011;34607;48.520;-1.330;2023-02-03T00:13:01;3.88;;;2.75;;
48795;SDS011;34607;48.520;-1.330;2023-02-03T00:15:28;4.85;;;2.60;;
48795;SDS011;34607;48.520;-1.330;2023-02-03T00:17:55;4.65;;;3.05;;
48795;SDS011;34607;48.520;-1.330;2023-02-03T00:20:22;4.00;;;3.25;;
48795;SDS011;34607;48.520;-1.330;2023-02-03T00:22:50;9.07;;;3.67;;
48795;SDS011;34607;48.520;-1.330;2023-02-03T00:25:17;5.95;;;3.00;;
48795;SDS011;34607;48.520;-1.330;2023-02-03T00:27:45;6.00;;;2.70;;
48795;SDS011;34607;48.520;-1.330;2023-02-03T00:30:17;5.97;;;2.90;;
48795;SDS011;34607;48.520;-1.330;2023-02-03T00:32:44;6.38;;;2.70;;
48795;SDS011;34607;48.520;-1.330;2023-02-03T00:35:11;7.00;;;2.88;;
48795;SDS011;34607;48.520;-1.330;2023-02-03T00:37:39;3.42;;;2.75;;
48795;SDS011;34607;48.520;-1.330;2023-02-03T00:40:10;5.50;;;2.65;;
48795;SDS011;34607;48.520;-1.330;2023-02-03T00:42:38;5.07;;;2.92;;
48795;SDS011;34607;48.520;-1.330;2023-02-03T00:45:05;4.93;;;3.05;;
48795;SDS011;34607;48.520;-1.330;2023-02-03T00:47:34;5.15;;;2.25;;
48795;SDS011;34607;48.520;-1.330;2023-02-03T00:50:02;5.35;;;2.42;;
48795;SDS011;34607;48.520;-1.330;2023-02-03T00:52:29;3.97;;;2.25;;
48795;SDS011;34607;48.520;-1.330;2023-02-03T00:54:56;5.00;;;2.60;;
48795;SDS011;34607;48.520;-1.330;2023-02-03T00:57:24;3.65;;;2.47;;
48795;SDS011;34607;48.520;-1.330;2023-02-03T00:59:51;4.47;;;2.17;;
48795;SDS011;34607;48.520;-1.330;2023-02-03T01:02:19;5.30;;;2.75;;
48795;SDS011;34607;48.520;-1.330;2023-02-03T01:04:55;4.95;;;2.42;;
48795;SDS011;34607;48.520;-1.330;2023-02-03T01:07:25;2.67;;;1.88;;
48795;SDS011;34607;48.520;-1.330;2023-02-03T01:09:52;3.83;;;1.88;;
48795;SDS011;34607;48.520;-1.330;2023-02-03T01:12:19;3.63;;;2.05;;
48795;SDS011;34607;48.520;-1.330;2023-02-03T01:14:46;5.57;;;1.80;;
48795;SDS011;34607;48.520;-1.330;2023-02-03T01:17:15;5.43;;;2.10;;
48795;SDS011;34607;48.520;-1.330;2023-02-03T01:19:42;3.05;;;1.58;;
48795;SDS011;34607;48.520;-1.330;2023-02-03T01:22:11;5.07;;;1.83;;
48795;SDS011;34607;48.520;-1.330;2023-02-03T01:24:38;3.33;;;1.98;;
48795;SDS011;34607;48.520;-1.330;2023-02-03T01:27:05;2.95;;;1.77;;
48795;SDS011;34607;48.520;-1.330;2023-02-03T01:29:32;3.45;;;1.50;;
48795;SDS011;34607;48.520;-1.330;2023-02-03T01:32:00;2.00;;;1.30;;
48795;SDS011;34607;48.520;-1.330;2023-02-03T01:34:27;6.82;;;1.92;;
48795;SDS011;34607;48.520;-1.330;2023-02-03T01:36:54;1.98;;;1.42;;
48795;SDS011;34607;48.520;-1.330;2023-02-03T01:39:23;2.35;;;1.40;;
48795;SDS011;34607;48.520;-1.330;2023-02-03T01:41:53;1.90;;;1.42;;
48795;SDS011;34607;48.520;-1.330;2023-02-03T01:44:34;2.60;;;1.48;;
48795;SDS011;34607;48.520;-1.330;2023-02-03T01:47:10;3.08;;;1.33;;
48795;SDS011;34607;48.520;-1.330;2023-02-03T01:49:46;4.88;;;1.40;;
48795;SDS011;34607;48.520;-1.330;2023-02-03T01:54:47;2.92;;;1.27;;
48795;SDS011;34607;48.520;-1.330;2023-02-03T01:57:18;3.80;;;1.50;;
48795;SDS011;34607;48.520;-1.330;2023-02-03T01:59:51;2.55;;;1.40;;
48795;SDS011;34607;48.520;-1.330;2023-02-03T02:02:21;4.15;;;1.60;;
48795;SDS011;34607;48.520;-1.330;2023-02-03T02:04:53;2.97;;;1.30;;
48795;SDS011;34607;48.520;-1.330;2023-02-03T02:07:25;3.95;;;1.60;;
48795;SDS011;34607;48.520;-1.330;2023-02-03T02:09:55;1.98;;;1.10;;
48795;SDS011;34607;48.520;-1.330;2023-02-03T02:12:23;1.90;;;1.20;;
48795;SDS011;34607;48.520;-1.330;2023-02-03T02:14:50;2.80;;;1.50;;
48795;SDS011;34607;48.520;-1.330;2023-02-03T02:17:28;3.20;;;1.55;;
48795;SDS011;34607;48.520;-1.330;2023-02-03T02:20:23;4.22;;;1.65;;
48795;SDS011;34607;48.520;-1.330;2023-02-03T02:29:31;2.25;;;1.30;;
48795;SDS011;34607;48.520;-1.330;2023-02-03T02:32:21;4.28;;;1.50;;
48795;SDS011;34607;48.520;-1.330;2023-02-03T02:35:01;3.42;;;1.13;;
48795;SDS011;34607;48.520;-1.330;2023-02-03T02:37:49;2.25;;;1.40;;
48795;SDS011;34607;48.520;-1.330;2023-02-03T02:40:40;3.15;;;1.20;;
48795;SDS011;34607;48.520;-1.330;2023-02-03T02:43:16;1.80;;;1.20;;
48795;SDS011;34607;48.520;-1.330;2023-02-03T02:45:47;4.50;;;1.73;;
48795;SDS011;34607;48.520;-1.330;2023-02-03T02:48:19;3.85;;;1.42;;
48795;SDS011;34607;48.520;-1.330;2023-02-03T02:50:49;2.67;;;1.60;;
48795;SDS011;34607;48.520;-1.330;2023-02-03T02:53:21;2.42;;;1.08;;
48795;SDS011;34607;48.520;-1.330;2023-02-03T02:55:52;3.78;;;1.30;;
48795;SDS011;34607;48.520;-1.330;2023-02-03T02:58:23;4.43;;;1.48;;
48795;SDS011;34607;48.520;-1.330;2023-02-03T03:00:53;2.10;;;1.30;;
48795;SDS011;34607;48.520;-1.330;2023-02-03T03:03:23;2.28;;;1.10;;
48795;SDS011;34607;48.520;-1.330;2023-02-03T03:05:50;2.78;;;1.20;;
48795;SDS011;34607;48.520;-1.330;2023-02-03T03:08:24;2.95;;;1.10;;
48795;SDS011;34607;48.520;-1.330;2023-02-03T03:11:00;3.35;;;1.00;;
48795;SDS011;34607;48.520;-1.330;2023-02-03T03:13:31;1.73;;;1.20;;
48795;SDS011;34607;48.520;-1.330;2023-02-03T03:16:04;2.22;;;1.38;;
48795;SDS011;34607;48.520;-1.330;2023-02-03T03:18:36;6.97;;;1.40;;
48795;SDS011;34607;48.520;-1.330;2023-02-03T03:21:08;1.90;;;1.13;;
48795;SDS011;34607;48.520;-1.330;2023-02-03T03:23:40;3.25;;;1.00;;
48795;SDS011;34607;48.520;-1.330;2023-02-03T03:26:11;1.10;;;0.90;;
48795;SDS011;34607;48.520;-1.330;2023-02-03T03:28:42;3.97;;;1.10;;
48795;SDS011;34607;48.520;-1.330;2023-02-03T03:31:14;2.38;;;1.17;;
48795;SDS011;34607;48.520;-1.330;2023-02-03T03:33:44;1.80;;;0.90;;
48795;SDS011;34607;48.520;-1.330;2023-02-03T03:36:15;1.38;;;0.88;;
48795;SDS011;34607;48.520;-1.330;2023-02-03T03:38:49;3.13;;;1.17;;
48795;SDS011;34607;48.520;-1.330;2023-02-03T03:41:24;0.77;;;0.60;;
48795;SDS011;34607;48.520;-1.330;2023-02-03T03:43:58;2.08;;;1.00;;
48795;SDS011;34607;48.520;-1.330;2023-02-03T03:46:30;3.22;;;1.35;;
48795;SDS011;34607;48.520;-1.330;2023-02-03T03:49:07;3.88;;;1.52;;
48795;SDS011;34607;48.520;-1.330;2023-02-03T03:51:37;4.05;;;1.10;;
48795;SDS011;34607;48.520;-1.330;2023-02-03T03:54:10;2.25;;;1.27;;
48795;SDS011;34607;48.520;-1.330;2023-02-03T03:56:44;1.90;;;0.77;;
48795;SDS011;34607;48.520;-1.330;2023-02-03T03:59:16;2.90;;;0.93;;
48795;SDS011;34607;48.520;-1.330;2023-02-03T04:01:46;2.58;;;1.08;;
48795;SDS011;34607;48.520;-1.330;2023-02-03T04:04:15;1.33;;;0.75;;
48795;SDS011;34607;48.520;-1.330;2023-02-03T04:06:46;2.30;;;1.08;;
48795;SDS011;34607;48.520;-1.330;2023-02-03T04:09:14;2.03;;;0.88;;
48795;SDS011;34607;48.520;-1.330;2023-02-03T04:11:44;3.58;;;0.88;;
48795;SDS011;34607;48.520;-1.330;2023-02-03T04:14:27;1.38;;;0.80;;
48795;SDS011;34607;48.520;-1.330;2023-02-03T04:16:55;2.75;;;1.38;;
48795;SDS011;34607;48.520;-1.330;2023-02-03T04:19:27;2.83;;;1.20;;
48795;SDS011;34607;48.520;-1.330;2023-02-03T04:22:07;2.42;;;1.00;;
48795;SDS011;34607;48.520;-1.330;2023-02-03T04:24:34;2.53;;;1.10;;
48795;SDS011;34607;48.520;-1.330;2023-02-03T04:27:04;4.88;;;1.33;;
48795;SDS011;34607;48.520;-1.330;2023-02-03T04:29:40;2.72;;;1.08;;
48795;SDS011;34607;48.520;-1.330;2023-02-03T04:32:07;3.08;;;0.82;;
48795;SDS011;34607;48.520;-1.330;2023-02-03T04:34:35;2.97;;;1.45;;
48795;SDS011;34607;48.520;-1.330;2023-02-03T04:37:03;2.58;;;1.02;;
48795;SDS011;34607;48.520;-1.330;2023-02-03T04:39:30;2.92;;;1.30;;
48795;SDS011;34607;48.520;-1.330;2023-02-03T04:41:57;3.47;;;0.90;;
48795;SDS011;34607;48.520;-1.330;2023-02-03T04:44:24;1.95;;;0.80;;
48795;SDS011;34607;48.520;-1.330;2023-02-03T04:46:51;4.60;;;0.90;;
48795;SDS011;34607;48.520;-1.330;2023-02-03T04:49:18;1.73;;;0.90;;
48795;SDS011;34607;48.520;-1.330;2023-02-03T04:51:48;2.10;;;1.02;;
48795;SDS011;34607;48.520;-1.330;2023-02-03T04:54:15;1.30;;;0.93;;
48795;SDS011;34607;48.520;-1.330;2023-02-03T04:56:43;1.67;;;0.93;;
48795;SDS011;34607;48.520;-1.330;2023-02-03T04:59:11;1.75;;;1.17;;
48795;SDS011;34607;48.520;-1.330;2023-02-03T05:01:38;1.92;;;0.90;;
48795;SDS011;34607;48.520;-1.330;2023-02-03T05:04:05;1.75;;;1.35;;
48795;SDS011;34607;48.520;-1.330;2023-02-03T05:06:32;3.28;;;1.48;;
48795;SDS011;34607;48.520;-1.330;2023-02-03T05:09:01;2.58;;;1.08;;
48795;SDS011;34607;48.520;-1.330;2023-02-03T05:11:28;8.20;;;1.30;;
48795;SDS011;34607;48.520;-1.330;2023-02-03T05:13:56;1.13;;;1.02;;
48795;SDS011;34607;48.520;-1.330;2023-02-03T05:16:23;1.40;;;1.10;;
48795;SDS011;34607;48.520;-1.330;2023-02-03T05:18:50;1.48;;;0.90;;
48795;SDS011;34607;48.520;-1.330;2023-02-03T05:21:18;1.70;;;1.00;;
48795;SDS011;34607;48.520;-1.330;2023-02-03T05:23:45;2.20;;;1.13;;
48795;SDS011;34607;48.520;-1.330;2023-02-03T05:26:13;2.00;;;0.95;;
48795;SDS011;34607;48.520;-1.330;2023-02-03T05:28:41;2.55;;;1.00;;
48795;SDS011;34607;48.520;-1.330;2023-02-03T05:31:08;1.90;;;0.85;;
48795;SDS011;34607;48.520;-1.330;2023-02-03T05:33:35;3.95;;;1.50;;
48795;SDS011;34607;48.520;-1.330;2023-02-03T05:36:02;4.10;;;1.20;;
48795;SDS011;34607;48.520;-1.330;2023-02-03T05:38:30;3.40;;;1.27;;
48795;SDS011;34607;48.520;-1.330;2023-02-03T05:40:57;6.47;;;1.77;;
48795;SDS011;34607;48.520;-1.330;2023-02-03T05:46:09;2.53;;;1.35;;
48795;SDS011;34607;48.520;-1.330;2023-02-03T05:48:36;2.45;;;1.50;;
48795;SDS011;34607;48.520;-1.330;2023-02-03T05:51:04;4.70;;;1.45;;
48795;SDS011;34607;48.520;-1.330;2023-02-03T05:53:31;2.50;;;1.17;;
48795;SDS011;34607;48.520;-1.330;2023-02-03T05:55:58;1.80;;;1.13;;
48795;SDS011;34607;48.520;-1.330;2023-02-03T05:58:25;1.90;;;1.17;;
48795;SDS011;34607;48.520;-1.330;2023-02-03T06:00:54;2.40;;;0.98;;
48795;SDS011;34607;48.520;-1.330;2023-02-03T06:03:21;2.15;;;0.90;;
48795;SDS011;34607;48.520;-1.330;2023-02-03T06:05:48;1.23;;;0.68;;
48795;SDS011;34607;48.520;-1.330;2023-02-03T06:08:15;1.77;;;1.20;;
48795;SDS011;34607;48.520;-1.330;2023-02-03T06:10:43;1.10;;;0.90;;
48795;SDS011;34607;48.520;-1.330;2023-02-03T06:13:10;5.78;;;1.20;;
48795;SDS011;34607;48.520;-1.330;2023-02-03T06:18:50;6.90;;;2.85;;
48795;SDS011;34607;48.520;-1.330;2023-02-03T06:21:30;2.85;;;1.50;;
48795;SDS011;34607;48.520;-1.330;2023-02-03T06:24:00;4.40;;;1.50;;
48795;SDS011;34607;48.520;-1.330;2023-02-03T06:26:27;2.67;;;1.40;;
48795;SDS011;34607;48.520;-1.330;2023-02-03T06:28:58;2.08;;;1.17;;
48795;SDS011;34607;48.520;-1.330;2023-02-03T06:31:33;1.67;;;1.13;;
48795;SDS011;34607;48.520;-1.330;2023-02-03T06:34:04;3.88;;;1.40;;
48795;SDS011;34607;48.520;-1.330;2023-02-03T06:36:34;5.85;;;1.60;;
48795;SDS011;34607;48.520;-1.330;2023-02-03T06:39:19;3.05;;;1.38;;
48795;SDS011;34607;48.520;-1.330;2023-02-03T06:41:46;3.53;;;1.73;;
48795;SDS011;34607;48.520;-1.330;2023-02-03T06:44:15;1.50;;;1.35;;
48795;SDS011;34607;48.520;-1.330;2023-02-03T06:46:44;3.00;;;1.10;;
48795;SDS011;34607;48.520;-1.330;2023-02-03T06:49:11;1.80;;;1.30;;
48795;SDS011;34607;48.520;-1.330;2023-02-03T06:51:38;3.60;;;1.65;;
48795;SDS011;34607;48.520;-1.330;2023-02-03T06:54:05;3.47;;;1.30;;
48795;SDS011;34607;48.520;-1.330;2023-02-03T06:56:33;2.30;;;1.52;;
48795;SDS011;34607;48.520;-1.330;2023-02-03T06:59:00;3.25;;;1.80;;
48795;SDS011;34607;48.520;-1.330;2023-02-03T07:01:27;5.28;;;1.67;;
48795;SDS011;34607;48.520;-1.330;2023-02-03T07:03:56;3.67;;;1.58;;
48795;SDS011;34607;48.520;-1.330;2023-02-03T07:06:24;3.35;;;1.80;;
48795;SDS011;34607;48.520;-1.330;2023-02-03T07:08:53;4.57;;;1.75;;
48795;SDS011;34607;48.520;-1.330;2023-02-03T07:11:20;2.80;;;1.52;;
48795;SDS011;34607;48.520;-1.330;2023-02-03T07:13:48;3.72;;;1.83;;
48795;SDS011;34607;48.520;-1.330;2023-02-03T07:16:20;3.22;;;1.60;;
48795;SDS011;34607;48.520;-1.330;2023-02-03T07:18:49;5.85;;;1.80;;
48795;SDS011;34607;48.520;-1.330;2023-02-03T07:21:21;2.95;;;1.73;;
48795;SDS011;34607;48.520;-1.330;2023-02-03T07:23:51;2.70;;;1.70;;
48795;SDS011;34607;48.520;-1.330;2023-02-03T07:26:18;4.65;;;2.28;;
48795;SDS011;34607;48.520;-1.330;2023-02-03T07:28:47;4.40;;;1.48;;
48795;SDS011;34607;48.520;-1.330;2023-02-03T07:31:14;4.25;;;1.60;;
48795;SDS011;34607;48.520;-1.330;2023-02-03T07:33:42;2.30;;;1.63;;
48795;SDS011;34607;48.520;-1.330;2023-02-03T07:36:09;3.58;;;1.60;;
48795;SDS011;34607;48.520;-1.330;2023-02-03T07:38:41;3.70;;;1.58;;
48795;SDS011;34607;48.520;-1.330;2023-02-03T07:41:08;4.15;;;2.05;;
48795;SDS011;34607;48.520;-1.330;2023-02-03T07:43:38;5.10;;;2.03;;
48795;SDS011;34607;48.520;-1.330;2023-02-03T07:46:05;5.88;;;1.40;;
48795;SDS011;34607;48.520;-1.330;2023-02-03T07:48:33;3.08;;;1.85;;
48795;SDS011;34607;48.520;-1.330;2023-02-03T07:51:00;2.65;;;1.85;;
48795;SDS011;34607;48.520;-1.330;2023-02-03T07:53:27;3.13;;;2.03;;
48795;SDS011;34607;48.520;-1.330;2023-02-03T07:55:57;2.92;;;2.00;;
48795;SDS011;34607;48.520;-1.330;2023-02-03T07:58:25;3.40;;;1.70;;
48795;SDS011;34607;48.520;-1.330;2023-02-03T08:00:52;3.05;;;1.60;;
48795;SDS011;34607;48.520;-1.330;2023-02-03T08:03:19;2.33;;;1.50;;
48795;SDS011;34607;48.520;-1.330;2023-02-03T08:05:47;2.08;;;1.60;;
48795;SDS011;34607;48.520;-1.330;2023-02-03T08:08:14;2.40;;;1.65;;
48795;SDS011;34607;48.520;-1.330;2023-02-03T08:10:41;4.93;;;1.83;;
48795;SDS011;34607;48.520;-1.330;2023-02-03T08:13:10;3.42;;;1.95;;
48795;SDS011;34607;48.520;-1.330;2023-02-03T08:15:37;3.80;;;2.38;;
48795;SDS011;34607;48.520;-1.330;2023-02-03T08:18:04;1.60;;;1.50;;
48795;SDS011;34607;48.520;-1.330;2023-02-03T08:20:36;3.45;;;2.00;;
48795;SDS011;34607;48.520;-1.330;2023-02-03T08:23:03;2.72;;;1.73;;
48795;SDS011;34607;48.520;-1.330;2023-02-03T08:25:30;3.50;;;1.73;;
48795;SDS011;34607;48.520;-1.330;2023-02-03T08:27:57;4.25;;;2.30;;
48795;SDS011;34607;48.520;-1.330;2023-02-03T08:30:26;4.47;;;2.58;;
48795;SDS011;34607;48.520;-1.330;2023-02-03T08:32:53;3.58;;;2.33;;
48795;SDS011;34607;48.520;-1.330;2023-02-03T08:35:21;4.68;;;2.33;;
48795;SDS011;34607;48.520;-1.330;2023-02-03T08:37:51;4.03;;;2.47;;
48795;SDS011;34607;48.520;-1.330;2023-02-03T08:40:24;3.25;;;1.80;;
48795;SDS011;34607;48.520;-1.330;2023-02-03T08:42:51;4.05;;;1.75;;
48795;SDS011;34607;48.520;-1.330;2023-02-03T08:45:18;1.98;;;1.40;;
48795;SDS011;34607;48.520;-1.330;2023-02-03T08:48:01;3.53;;;1.90;;
48795;SDS011;34607;48.520;-1.330;2023-02-03T08:50:31;1.25;;;1.15;;
48795;SDS011;34607;48.520;-1.330;2023-02-03T08:52:58;2.22;;;1.60;;
48795;SDS011;34607;48.520;-1.330;2023-02-03T08:59:18;6.72;;;5.82;;
48795;SDS011;34607;48.520;-1.330;2023-02-03T09:01:49;4.43;;;1.80;;
48795;SDS011;34607;48.520;-1.330;2023-02-03T09:04:21;3.05;;;1.95;;
48795;SDS011;34607;48.520;-1.330;2023-02-03T09:06:49;2.08;;;1.40;;
48795;SDS011;34607;48.520;-1.330;2023-02-03T09:09:23;3.67;;;1.73;;
48795;SDS011;34607;48.520;-1.330;2023-02-03T09:11:51;3.42;;;1.52;;
48795;SDS011;34607;48.520;-1.330;2023-02-03T09:14:19;2.10;;;1.50;;
48795;SDS011;34607;48.520;-1.330;2023-02-03T09:16:50;2.55;;;1.50;;
48795;SDS011;34607;48.520;-1.330;2023-02-03T09:19:22;3.50;;;1.77;;
48795;SDS011;34607;48.520;-1.330;2023-02-03T09:21:52;5.03;;;2.75;;
48795;SDS011;34607;48.520;-1.330;2023-02-03T09:30:45;3.22;;;1.92;;
48795;SDS011;34607;48.520;-1.330;2023-02-03T09:33:15;4.55;;;2.00;;
48795;SDS011;34607;48.520;-1.330;2023-02-03T09:35:52;2.90;;;2.30;;
48795;SDS011;34607;48.520;-1.330;2023-02-03T09:38:28;2.88;;;1.92;;
48795;SDS011;34607;48.520;-1.330;2023-02-03T09:41:18;2.95;;;2.17;;
48795;SDS011;34607;48.520;-1.330;2023-02-03T09:44:03;2.65;;;1.50;;
48795;SDS011;34607;48.520;-1.330;2023-02-03T09:46:42;3.58;;;1.80;;
48795;SDS011;34607;48.520;-1.330;2023-02-03T09:49:13;2.65;;;2.15;;
48795;SDS011;34607;48.520;-1.330;2023-02-03T09:51:49;4.78;;;2.90;;
48795;SDS011;34607;48.520;-1.330;2023-02-03T09:54:20;2.78;;;2.58;;
48795;SDS011;34607;48.520;-1.330;2023-02-03T09:56:56;4.38;;;3.17;;
48795;SDS011;34607;48.520;-1.330;2023-02-03T09:59:26;6.40;;;4.22;;
48795;SDS011;34607;48.520;-1.330;2023-02-03T10:01:57;5.13;;;3.30;;
48795;SDS011;34607;48.520;-1.330;2023-02-03T10:04:35;4.53;;;3.00;;
48795;SDS011;34607;48.520;-1.330;2023-02-03T10:07:08;3.53;;;2.00;;
48795;SDS011;34607;48.520;-1.330;2023-02-03T10:09:47;5.82;;;2.67;;
48795;SDS011;34607;48.520;-1.330;2023-02-03T10:12:50;4.65;;;2.42;;
48795;SDS011;34607;48.520;-1.330;2023-02-03T10:18:22;2.53;;;2.33;;
48795;SDS011;34607;48.520;-1.330;2023-02-03T10:20:54;2.58;;;2.05;;
48795;SDS011;34607;48.520;-1.330;2023-02-03T10:23:30;3.67;;;2.28;;
48795;SDS011;34607;48.520;-1.330;2023-02-03T10:26:02;4.30;;;2.75;;
48795;SDS011;34607;48.520;-1.330;2023-02-03T10:28:56;3.20;;;2.53;;
48795;SDS011;34607;48.520;-1.330;2023-02-03T10:31:31;5.22;;;2.10;;
48795;SDS011;34607;48.520;-1.330;2023-02-03T10:34:04;4.68;;;2.38;;
48795;SDS011;34607;48.520;-1.330;2023-02-03T10:36:43;2.60;;;2.40;;
48795;SDS011;34607;48.520;-1.330;2023-02-03T10:39:21;4.40;;;2.72;;
48795;SDS011;34607;48.520;-1.330;2023-02-03T10:41:55;4.20;;;2.33;;
48795;SDS011;34607;48.520;-1.330;2023-02-03T10:44:24;4.82;;;2.70;;
48795;SDS011;34607;48.520;-1.330;2023-02-03T10:46:57;5.50;;;1.70;;
48795;SDS011;34607;48.520;-1.330;2023-02-03T10:49:25;2.22;;;1.85;;
48795;SDS011;34607;48.520;-1.330;2023-02-03T10:51:55;3.75;;;2.35;;
48795;SDS011;34607;48.520;-1.330;2023-02-03T10:54:31;2.55;;;2.35;;
48795;SDS011;34607;48.520;-1.330;2023-02-03T10:57:03;3.58;;;2.72;;
48795;SDS011;34607;48.520;-1.330;2023-02-03T10:59:32;4.15;;;2.50;;
48795;SDS011;34607;48.520;-1.330;2023-02-03T11:04:51;3.08;;;2.53;;
48795;SDS011;34607;48.520;-1.330;2023-02-03T11:07:35;3.35;;;2.65;;
48795;SDS011;34607;48.520;-1.330;2023-02-03T11:10:04;4.03;;;3.63;;
48795;SDS011;34607;48.520;-1.330;2023-02-03T11:12:53;9.45;;;5.05;;
48795;SDS011;34607;48.520;-1.330;2023-02-03T11:15:37;7.50;;;5.40;;
48795;SDS011;34607;48.520;-1.330;2023-02-03T11:18:24;11.93;;;4.15;;
48795;SDS011;34607;48.520;-1.330;2023-02-03T11:20:53;6.68;;;5.18;;
48795;SDS011;34607;48.520;-1.330;2023-02-03T11:23:20;7.55;;;6.28;;
48795;SDS011;34607;48.520;-1.330;2023-02-03T11:25:49;8.48;;;4.82;;
48795;SDS011;34607;48.520;-1.330;2023-02-03T11:28:25;7.22;;;4.05;;
48795;SDS011;34607;48.520;-1.330;2023-02-03T11:30:54;8.18;;;5.00;;
48795;SDS011;34607;48.520;-1.330;2023-02-03T11:33:23;7.47;;;5.28;;
48795;SDS011;34607;48.520;-1.330;2023-02-03T11:35:54;11.07;;;9.48;;
48795;SDS011;34607;48.520;-1.330;2023-02-03T11:38:27;9.30;;;5.75;;
48795;SDS011;34607;48.520;-1.330;2023-02-03T11:41:00;6.03;;;4.85;;
48795;SDS011;34607;48.520;-1.330;2023-02-03T11:43:28;6.18;;;2.92;;
48795;SDS011;34607;48.520;-1.330;2023-02-03T11:45:58;5.15;;;3.80;;
48795;SDS011;34607;48.520;-1.330;2023-02-03T11:51:40;6.10;;;2.13;;
48795;SDS011;34607;48.520;-1.330;2023-02-03T11:54:15;4.43;;;3.50;;
48795;SDS011;34607;48.520;-1.330;2023-02-03T11:59:55;3.45;;;1.80;;
48795;SDS011;34607;48.520;-1.330;2023-02-03T12:02:44;2.63;;;1.98;;
48795;SDS011;34607;48.520;-1.330;2023-02-03T12:05:44;8.85;;;5.25;;
48795;SDS011;34607;48.520;-1.330;2023-02-03T12:08:25;2.92;;;2.30;;
48795;SDS011;34607;48.520;-1.330;2023-02-03T12:11:09;4.38;;;3.05;;
48795;SDS011;34607;48.520;-1.330;2023-02-03T12:13:52;6.38;;;4.68;;
48795;SDS011;34607;48.520;-1.330;2023-02-03T12:16:56;4.75;;;3.90;;
48795;SDS011;34607;48.520;-1.330;2023-02-03T12:19:42;6.05;;;3.05;;
48795;SDS011;34607;48.520;-1.330;2023-02-03T12:22:21;4.88;;;3.00;;
48795;SDS011;34607;48.520;-1.330;2023-02-03T12:24:56;7.38;;;4.07;;
48795;SDS011;34607;48.520;-1.330;2023-02-03T12:27:33;4.95;;;2.45;;
48795;SDS011;34607;48.520;-1.330;2023-02-03T12:30:10;5.05;;;2.85;;
48795;SDS011;34607;48.520;-1.330;2023-02-03T12:32:41;5.78;;;3.15;;
48795;SDS011;34607;48.520;-1.330;2023-02-03T12:35:16;2.50;;;2.22;;
48795;SDS011;34607;48.520;-1.330;2023-02-03T12:37:48;4.50;;;1.38;;
48795;SDS011;34607;48.520;-1.330;2023-02-03T12:40:21;3.55;;;1.40;;
48795;SDS011;34607;48.520;-1.330;2023-02-03T12:42:55;8.57;;;1.95;;
48795;SDS011;34607;48.520;-1.330;2023-02-03T12:45:29;4.00;;;2.45;;
48795;SDS011;34607;48.520;-1.330;2023-02-03T12:48:01;6.43;;;3.15;;
48795;SDS011;34607;48.520;-1.330;2023-02-03T12:50:36;4.13;;;2.70;;
48795;SDS011;34607;48.520;-1.330;2023-02-03T12:53:11;3.15;;;2.83;;
48795;SDS011;34607;48.520;-1.330;2023-02-03T12:55:43;3.72;;;2.33;;
48795;SDS011;34607;48.520;-1.330;2023-02-03T12:58:16;3.67;;;2.35;;
48795;SDS011;34607;48.520;-1.330;2023-02-03T13:00:50;4.75;;;2.55;;
48795;SDS011;34607;48.520;-1.330;2023-02-03T13:03:23;5.30;;;3.50;;
48795;SDS011;34607;48.520;-1.330;2023-02-03T13:05:58;7.15;;;4.05;;
48795;SDS011;34607;48.520;-1.330;2023-02-03T13:08:32;8.07;;;4.57;;
48795;SDS011;34607;48.520;-1.330;2023-02-03T13:11:05;6.88;;;2.70;;
48795;SDS011;34607;48.520;-1.330;2023-02-03T13:13:39;7.95;;;3.22;;
48795;SDS011;34607;48.520;-1.330;2023-02-03T13:16:11;14.85;;;9.40;;
48795;SDS011;34607;48.520;-1.330;2023-02-03T13:18:43;12.45;;;7.88;;
48795;SDS011;34607;48.520;-1.330;2023-02-03T13:21:15;7.75;;;5.82;;
48795;SDS011;34607;48.520;-1.330;2023-02-03T13:23:43;7.55;;;5.82;;
48795;SDS011;34607;48.520;-1.330;2023-02-03T13:26:27;12.35;;;8.55;;
48795;SDS011;34607;48.520;-1.330;2023-02-03T13:29:28;22.25;;;17.75;;
48795;SDS011;34607;48.520;-1.330;2023-02-03T13:35:10;11.77;;;8.07;;
48795;SDS011;34607;48.520;-1.330;2023-02-03T13:37:55;16.08;;;10.80;;
48795;SDS011;34607;48.520;-1.330;2023-02-03T13:40:45;12.13;;;7.97;;
48795;SDS011;34607;48.520;-1.330;2023-02-03T13:43:24;22.02;;;15.63;;
48795;SDS011;34607;48.520;-1.330;2023-02-03T13:45:55;11.60;;;8.00;;
48795;SDS011;34607;48.520;-1.330;2023-02-03T13:48:24;13.18;;;7.10;;
48795;SDS011;34607;48.520;-1.330;2023-02-03T13:51:01;28.85;;;15.52;;
48795;SDS011;34607;48.520;-1.330;2023-02-03T13:53:34;5.35;;;2.53;;
48795;SDS011;34607;48.520;-1.330;2023-02-03T13:56:03;12.38;;;5.35;;
48795;SDS011;34607;48.520;-1.330;2023-02-03T14:01:44;24.15;;;18.20;;
48795;SDS011;34607;48.520;-1.330;2023-02-03T14:07:27;31.80;;;20.83;;
48795;SDS011;34607;48.520;-1.330;2023-02-03T14:10:08;22.88;;;15.27;;
48795;SDS011;34607;48.520;-1.330;2023-02-03T14:12:53;28.88;;;19.90;;
48795;SDS011;34607;48.520;-1.330;2023-02-03T14:15:27;25.13;;;15.40;;
48795;SDS011;34607;48.520;-1.330;2023-02-03T14:17:59;24.65;;;16.00;;
48795;SDS011;34607;48.520;-1.330;2023-02-03T14:20:39;13.27;;;6.65;;
48795;SDS011;34607;48.520;-1.330;2023-02-03T14:23:26;7.00;;;5.80;;
48795;SDS011;34607;48.520;-1.330;2023-02-03T14:25:59;4.15;;;2.45;;
48795;SDS011;34607;48.520;-1.330;2023-02-03T14:28:30;3.83;;;2.17;;
48795;SDS011;34607;48.520;-1.330;2023-02-03T14:31:06;9.10;;;5.00;;
48795;SDS011;34607;48.520;-1.330;2023-02-03T14:33:49;17.63;;;12.93;;
48795;SDS011;34607;48.520;-1.330;2023-02-03T14:36:40;17.20;;;12.27;;
48795;SDS011;34607;48.520;-1.330;2023-02-03T14:42:28;11.30;;;9.52;;
48795;SDS011;34607;48.520;-1.330;2023-02-03T14:45:24;8.32;;;3.53;;
48795;SDS011;34607;48.520;-1.330;2023-02-03T14:48:13;2.23;;;1.30;;
48795;SDS011;34607;48.520;-1.330;2023-02-03T14:51:00;4.03;;;2.90;;
48795;SDS011;34607;48.520;-1.330;2023-02-03T14:56:38;4.85;;;1.83;;
48795;SDS011;34607;48.520;-1.330;2023-02-03T14:59:34;2.42;;;1.17;;
48795;SDS011;34607;48.520;-1.330;2023-02-03T15:02:12;4.43;;;3.30;;
48795;SDS011;34607;48.520;-1.330;2023-02-03T15:04:41;5.13;;;3.90;;
48795;SDS011;34607;48.520;-1.330;2023-02-03T15:10:02;5.50;;;2.13;;
48795;SDS011;34607;48.520;-1.330;2023-02-03T15:12:33;3.40;;;1.60;;
48795;SDS011;34607;48.520;-1.330;2023-02-03T15:15:14;4.78;;;3.20;;
48795;SDS011;34607;48.520;-1.330;2023-02-03T15:17:46;7.72;;;4.20;;
48795;SDS011;34607;48.520;-1.330;2023-02-03T15:20:19;4.63;;;3.08;;
48795;SDS011;34607;48.520;-1.330;2023-02-03T15:22:51;3.22;;;1.17;;
48795;SDS011;34607;48.520;-1.330;2023-02-03T15:25:20;3.72;;;2.40;;
48795;SDS011;34607;48.520;-1.330;2023-02-03T15:27:49;4.38;;;2.75;;
48795;SDS011;34607;48.520;-1.330;2023-02-03T15:30:20;4.13;;;3.55;;
48795;SDS011;34607;48.520;-1.330;2023-02-03T15:32:54;2.53;;;1.85;;
48795;SDS011;34607;48.520;-1.330;2023-02-03T15:35:28;2.85;;;1.83;;
48795;SDS011;34607;48.520;-1.330;2023-02-03T15:37:58;4.68;;;1.20;;
48795;SDS011;34607;48.520;-1.330;2023-02-03T15:40:30;2.70;;;1.98;;
48795;SDS011;34607;48.520;-1.330;2023-02-03T15:43:03;3.15;;;2.38;;
48795;SDS011;34607;48.520;-1.330;2023-02-03T15:45:37;3.88;;;1.70;;
48795;SDS011;34607;48.520;-1.330;2023-02-03T15:48:12;2.40;;;1.73;;
48795;SDS011;34607;48.520;-1.330;2023-02-03T15:50:44;2.65;;;2.20;;
48795;SDS011;34607;48.520;-1.330;2023-02-03T15:53:17;4.07;;;1.83;;
48795;SDS011;34607;48.520;-1.330;2023-02-03T15:55:50;2.65;;;1.85;;
48795;SDS011;34607;48.520;-1.330;2023-02-03T15:58:21;2.00;;;1.00;;